sensor_id;sensor_type;location;lat;lon;timestamp;P1;P2;P0
44312;PMS5003;38833;51.142;-0.974;2024-03-08T00:00:16;1;0;
44312;PMS5003;38833;51.142;-0.974;2024-03-08T00:02:50;4;1;
44312;PMS5003;38833;51.142;-0.974;2024-03-08T00:05:23;0;0;
44312;PMS5003;38833;51.142;-0.974;2024-03-08T00:07:57;2;0;
44312;PMS5003;38833;51.142;-0.974;2024-03-08T00:10:30;2;2;
44312;PMS5003;38833;51.142;-0.974;2024-03-08T00:13:03;3;1;
44312;PMS5003;38833;51.142;-0.974;2024-03-08T00:15:37;0;0;
44312;PMS5003;38833;51.142;-0.974;2024-03-08T00:18:10;3;1;
44312;PMS5003;38833;51.142;-0.974;2024-03-08T00:20:44;2;1;
44312;PMS5003;38833;51.142;-0.974;2024-03-08T00:23:17;2;0;
44312;PMS5003;38833;51.142;-0.974;2024-03-08T00:25:50;1;1;
44312;PMS5003;38833;51.142;-0.974;2024-03-08T00:28:24;1;1;
44312;PMS5003;38833;51.142;-0.974;2024-03-08T00:30:57;0;0;
44312;PMS5003;38833;51.142;-0.974;2024-03-08T00:33:30;0;0;
44312;PMS5003;38833;51.142;-0.974;2024-03-08T00:36:04;2;1;
44312;PMS5003;38833;51.142;-0.974;2024-03-08T00:38:37;0;0;
44312;PMS5003;38833;51.142;-0.974;2024-03-08T00:41:10;1;1;
44312;PMS5003;38833;51.142;-0.974;2024-03-08T00:43:44;1;1;
44312;PMS5003;38833;51.142;-0.974;2024-03-08T00:46:17;4;2;
44312;PMS5003;38833;51.142;-0.974;2024-03-08T00:48:50;1;1;
44312;PMS5003;38833;51.142;-0.974;2024-03-08T00:51:24;2;1;
44312;PMS5003;38833;51.142;-0.974;2024-03-08T00:53:57;1;1;
44312;PMS5003;38833;51.142;-0.974;2024-03-08T00:56:31;2;2;
44312;PMS5003;38833;51.142;-0.974;2024-03-08T00:59:04;3;2;
44312;PMS5003;38833;51.142;-0.974;2024-03-08T01:01:39;1;1;
44312;PMS5003;38833;51.142;-0.974;2024-03-08T01:04:12;4;2;
44312;PMS5003;38833;51.142;-0.974;2024-03-08T01:06:45;2;2;
44312;PMS5003;38833;51.142;-0.974;2024-03-08T01:09:19;6;3;
44312;PMS5003;38833;51.142;-0.974;2024-03-08T01:11:52;4;4;
44312;PMS5003;38833;51.142;-0.974;2024-03-08T01:14:26;2;2;
44312;PMS5003;38833;51.142;-0.974;2024-03-08T01:17:00;3;2;
44312;PMS5003;38833;51.142;-0.974;2024-03-08T01:19:33;1;1;
44312;PMS5003;38833;51.142;-0.974;2024-03-08T01:22:06;1;1;
44312;PMS5003;38833;51.142;-0.974;2024-03-08T01:24:40;1;1;
44312;PMS5003;38833;51.142;-0.974;2024-03-08T01:27:13;0;0;
44312;PMS5003;38833;51.142;-0.974;2024-03-08T01:29:47;0;0;
44312;PMS5003;38833;51.142;-0.974;2024-03-08T01:32:20;0;0;
44312;PMS5003;38833;51.142;-0.974;2024-03-08T01:34:53;2;2;
44312;PMS5003;38833;51.142;-0.974;2024-03-08T01:37:27;2;1;
44312;PMS5003;38833;51.142;-0.974;2024-03-08T01:40:00;3;2;
44312;PMS5003;38833;51.142;-0.974;2024-03-08T01:42:33;1;1;
44312;PMS5003;38833;51.142;-0.974;2024-03-08T01:45:07;1;1;
44312;PMS5003;38833;51.142;-0.974;2024-03-08T01:47:40;1;1;
44312;PMS5003;38833;51.142;-0.974;2024-03-08T01:50:14;1;1;
44312;PMS5003;38833;51.142;-0.974;2024-03-08T01:52:48;3;2;
44312;PMS5003;38833;51.142;-0.974;2024-03-08T01:55:21;0;0;
44312;PMS5003;38833;51.142;-0.974;2024-03-08T01:57:54;1;1;
44312;PMS5003;38833;51.142;-0.974;2024-03-08T02:00:28;3;3;
44312;PMS5003;38833;51.142;-0.974;2024-03-08T02:03:02;2;2;
44312;PMS5003;38833;51.142;-0.974;2024-03-08T02:05:35;1;1;
44312;PMS5003;38833;51.142;-0.974;2024-03-08T02:08:09;3;3;
44312;PMS5003;38833;51.142;-0.974;2024-03-08T02:10:43;2;2;
44312;PMS5003;38833;51.142;-0.974;2024-03-08T02:13:17;4;3;
44312;PMS5003;38833;51.142;-0.974;2024-03-08T02:15:51;4;4;
44312;PMS5003;38833;51.142;-0.974;2024-03-08T02:18:25;3;3;
44312;PMS5003;38833;51.142;-0.974;2024-03-08T02:21:00;5;5;
44312;PMS5003;38833;51.142;-0.974;2024-03-08T02:23:35;2;2;
44312;PMS5003;38833;51.142;-0.974;2024-03-08T02:26:08;5;5;
44312;PMS5003;38833;51.142;-0.974;2024-03-08T02:28:41;4;2;
44312;PMS5003;38833;51.142;-0.974;2024-03-08T02:31:16;3;3;
44312;PMS5003;38833;51.142;-0.974;2024-03-08T02:33:49;1;1;
44312;PMS5003;38833;51.142;-0.974;2024-03-08T02:36:23;3;2;
44312;PMS5003;38833;51.142;-0.974;2024-03-08T02:38:56;3;3;
44312;PMS5003;38833;51.142;-0.974;2024-03-08T02:41:30;5;2;
44312;PMS5003;38833;51.142;-0.974;2024-03-08T02:44:03;4;2;
44312;PMS5003;38833;51.142;-0.974;2024-03-08T02:46:37;2;2;
44312;PMS5003;38833;51.142;-0.974;2024-03-08T02:49:10;1;1;
44312;PMS5003;38833;51.142;-0.974;2024-03-08T02:51:44;2;2;
44312;PMS5003;38833;51.142;-0.974;2024-03-08T02:54:17;2;2;
44312;PMS5003;38833;51.142;-0.974;2024-03-08T02:56:50;2;2;
44312;PMS5003;38833;51.142;-0.974;2024-03-08T02:59:24;0;0;
44312;PMS5003;38833;51.142;-0.974;2024-03-08T03:01:57;1;1;
44312;PMS5003;38833;51.142;-0.974;2024-03-08T03:04:31;3;1;
44312;PMS5003;38833;51.142;-0.974;2024-03-08T03:07:04;3;3;
44312;PMS5003;38833;51.142;-0.974;2024-03-08T03:09:38;1;1;
44312;PMS5003;38833;51.142;-0.974;2024-03-08T03:12:11;1;1;
44312;PMS5003;38833;51.142;-0.974;2024-03-08T03:14:44;2;2;
44312;PMS5003;38833;51.142;-0.974;2024-03-08T03:17:18;3;1;
44312;PMS5003;38833;51.142;-0.974;2024-03-08T03:19:51;2;2;
44312;PMS5003;38833;51.142;-0.974;2024-03-08T03:22:25;1;1;
44312;PMS5003;38833;51.142;-0.974;2024-03-08T03:24:58;2;2;
44312;PMS5003;38833;51.142;-0.974;2024-03-08T03:27:31;1;1;
44312;PMS5003;38833;51.142;-0.974;2024-03-08T03:30:05;1;1;
44312;PMS5003;38833;51.142;-0.974;2024-03-08T03:32:39;4;2;
44312;PMS5003;38833;51.142;-0.974;2024-03-08T03:35:13;2;2;
44312;PMS5003;38833;51.142;-0.974;2024-03-08T03:37:46;1;1;
44312;PMS5003;38833;51.142;-0.974;2024-03-08T03:40:20;1;1;
44312;PMS5003;38833;51.142;-0.974;2024-03-08T03:42:53;2;2;
44312;PMS5003;38833;51.142;-0.974;2024-03-08T03:45:27;1;1;
44312;PMS5003;38833;51.142;-0.974;2024-03-08T03:48:01;0;0;
44312;PMS5003;38833;51.142;-0.974;2024-03-08T03:50:35;0;0;
44312;PMS5003;38833;51.142;-0.974;2024-03-08T03:53:09;1;1;
44312;PMS5003;38833;51.142;-0.974;2024-03-08T03:55:42;1;1;
44312;PMS5003;38833;51.142;-0.974;2024-03-08T03:58:15;1;1;
44312;PMS5003;38833;51.142;-0.974;2024-03-08T04:00:49;2;1;
44312;PMS5003;38833;51.142;-0.974;2024-03-08T04:03:22;1;1;
44312;PMS5003;38833;51.142;-0.974;2024-03-08T04:05:55;3;2;
44312;PMS5003;38833;51.142;-0.974;2024-03-08T04:08:28;0;0;
44312;PMS5003;38833;51.142;-0.974;2024-03-08T04:11:02;3;1;
44312;PMS5003;38833;51.142;-0.974;2024-03-08T04:13:35;0;0;
44312;PMS5003;38833;51.142;-0.974;2024-03-08T04:16:09;2;2;
44312;PMS5003;38833;51.142;-0.974;2024-03-08T04:18:42;4;1;
44312;PMS5003;38833;51.142;-0.974;2024-03-08T04:21:15;1;1;
44312;PMS5003;38833;51.142;-0.974;2024-03-08T04:23:48;1;1;
44312;PMS5003;38833;51.142;-0.974;2024-03-08T04:26:22;1;1;
44312;PMS5003;38833;51.142;-0.974;2024-03-08T04:28:55;1;1;
44312;PMS5003;38833;51.142;-0.974;2024-03-08T04:31:29;0;0;
44312;PMS5003;38833;51.142;-0.974;2024-03-08T04:34:02;1;1;
44312;PMS5003;38833;51.142;-0.974;2024-03-08T04:36:35;0;0;
44312;PMS5003;38833;51.142;-0.974;2024-03-08T04:39:08;1;1;
44312;PMS5003;38833;51.142;-0.974;2024-03-08T04:41:42;1;1;
44312;PMS5003;38833;51.142;-0.974;2024-03-08T04:44:16;2;1;
44312;PMS5003;38833;51.142;-0.974;2024-03-08T04:46:49;3;1;
44312;PMS5003;38833;51.142;-0.974;2024-03-08T04:49:23;1;1;
44312;PMS5003;38833;51.142;-0.974;2024-03-08T04:51:56;2;1;
44312;PMS5003;38833;51.142;-0.974;2024-03-08T04:54:29;2;2;
44312;PMS5003;38833;51.142;-0.974;2024-03-08T04:57:03;1;1;
44312;PMS5003;38833;51.142;-0.974;2024-03-08T04:59:36;3;3;
44312;PMS5003;38833;51.142;-0.974;2024-03-08T05:02:09;3;1;
44312;PMS5003;38833;51.142;-0.974;2024-03-08T05:04:43;4;2;
44312;PMS5003;38833;51.142;-0.974;2024-03-08T05:07:16;4;3;
44312;PMS5003;38833;51.142;-0.974;2024-03-08T05:09:49;2;2;
44312;PMS5003;38833;51.142;-0.974;2024-03-08T05:12:23;3;3;
44312;PMS5003;38833;51.142;-0.974;2024-03-08T05:14:57;5;3;
44312;PMS5003;38833;51.142;-0.974;2024-03-08T05:17:30;4;3;
44312;PMS5003;38833;51.142;-0.974;2024-03-08T05:20:03;2;2;
44312;PMS5003;38833;51.142;-0.974;2024-03-08T05:22:37;0;0;
44312;PMS5003;38833;51.142;-0.974;2024-03-08T05:25:10;1;1;
44312;PMS5003;38833;51.142;-0.974;2024-03-08T05:27:44;1;1;
44312;PMS5003;38833;51.142;-0.974;2024-03-08T05:30:17;2;2;
44312;PMS5003;38833;51.142;-0.974;2024-03-08T05:32:50;5;2;
44312;PMS5003;38833;51.142;-0.974;2024-03-08T05:35:24;3;1;
44312;PMS5003;38833;51.142;-0.974;2024-03-08T05:37:57;2;1;
44312;PMS5003;38833;51.142;-0.974;2024-03-08T05:40:31;1;1;
44312;PMS5003;38833;51.142;-0.974;2024-03-08T05:43:04;2;2;
44312;PMS5003;38833;51.142;-0.974;2024-03-08T05:45:37;3;2;
44312;PMS5003;38833;51.142;-0.974;2024-03-08T05:48:11;5;3;
44312;PMS5003;38833;51.142;-0.974;2024-03-08T05:50:44;1;1;
44312;PMS5003;38833;51.142;-0.974;2024-03-08T05:53:17;1;1;
44312;PMS5003;38833;51.142;-0.974;2024-03-08T05:55:51;3;1;
44312;PMS5003;38833;51.142;-0.974;2024-03-08T05:58:24;5;2;
44312;PMS5003;38833;51.142;-0.974;2024-03-08T06:00:58;2;2;
44312;PMS5003;38833;51.142;-0.974;2024-03-08T06:03:31;1;1;
44312;PMS5003;38833;51.142;-0.974;2024-03-08T06:06:04;1;1;
44312;PMS5003;38833;51.142;-0.974;2024-03-08T06:08:37;1;1;
44312;PMS5003;38833;51.142;-0.974;2024-03-08T06:11:11;2;1;
44312;PMS5003;38833;51.142;-0.974;2024-03-08T06:13:44;2;2;
44312;PMS5003;38833;51.142;-0.974;2024-03-08T06:16:18;3;1;
44312;PMS5003;38833;51.142;-0.974;2024-03-08T06:18:51;3;1;
44312;PMS5003;38833;51.142;-0.974;2024-03-08T06:21:25;0;0;
44312;PMS5003;38833;51.142;-0.974;2024-03-08T06:23:58;2;2;
44312;PMS5003;38833;51.142;-0.974;2024-03-08T06:26:32;2;2;
44312;PMS5003;38833;51.142;-0.974;2024-03-08T06:29:06;2;2;
44312;PMS5003;38833;51.142;-0.974;2024-03-08T06:31:39;1;1;
44312;PMS5003;38833;51.142;-0.974;2024-03-08T06:34:12;2;2;
44312;PMS5003;38833;51.142;-0.974;2024-03-08T06:36:46;1;1;
44312;PMS5003;38833;51.142;-0.974;2024-03-08T06:39:19;3;2;
44312;PMS5003;38833;51.142;-0.974;2024-03-08T06:41:52;4;2;
44312;PMS5003;38833;51.142;-0.974;2024-03-08T06:44:26;3;1;
44312;PMS5003;38833;51.142;-0.974;2024-03-08T06:46:59;2;2;
44312;PMS5003;38833;51.142;-0.974;2024-03-08T06:49:32;5;2;
44312;PMS5003;38833;51.142;-0.974;2024-03-08T06:52:05;3;2;
44312;PMS5003;38833;51.142;-0.974;2024-03-08T06:54:39;2;2;
44312;PMS5003;38833;51.142;-0.974;2024-03-08T06:57:12;2;2;
44312;PMS5003;38833;51.142;-0.974;2024-03-08T06:59:46;5;4;
44312;PMS5003;38833;51.142;-0.974;2024-03-08T07:02:19;5;3;
44312;PMS5003;38833;51.142;-0.974;2024-03-08T07:04:52;2;2;
44312;PMS5003;38833;51.142;-0.974;2024-03-08T07:07:26;4;3;
44312;PMS5003;38833;51.142;-0.974;2024-03-08T07:09:59;10;5;
44312;PMS5003;38833;51.142;-0.974;2024-03-08T07:12:32;5;3;
44312;PMS5003;38833;51.142;-0.974;2024-03-08T07:15:06;2;2;
44312;PMS5003;38833;51.142;-0.974;2024-03-08T07:17:40;2;2;
44312;PMS5003;38833;51.142;-0.974;2024-03-08T07:20:13;3;1;
44312;PMS5003;38833;51.142;-0.974;2024-03-08T07:22:47;3;3;
44312;PMS5003;38833;51.142;-0.974;2024-03-08T07:25:21;4;4;
44312;PMS5003;38833;51.142;-0.974;2024-03-08T07:27:55;2;2;
44312;PMS5003;38833;51.142;-0.974;2024-03-08T07:30:29;4;4;
44312;PMS5003;38833;51.142;-0.974;2024-03-08T07:33:02;4;3;
44312;PMS5003;38833;51.142;-0.974;2024-03-08T07:35:36;2;2;
44312;PMS5003;38833;51.142;-0.974;2024-03-08T07:38:09;3;2;
44312;PMS5003;38833;51.142;-0.974;2024-03-08T07:40:42;4;4;
44312;PMS5003;38833;51.142;-0.974;2024-03-08T07:43:15;4;3;
44312;PMS5003;38833;51.142;-0.974;2024-03-08T07:45:49;3;3;
44312;PMS5003;38833;51.142;-0.974;2024-03-08T07:48:22;1;1;
44312;PMS5003;38833;51.142;-0.974;2024-03-08T07:50:55;7;4;
44312;PMS5003;38833;51.142;-0.974;2024-03-08T07:53:29;5;3;
44312;PMS5003;38833;51.142;-0.974;2024-03-08T07:56:02;4;3;
44312;PMS5003;38833;51.142;-0.974;2024-03-08T07:58:36;4;4;
44312;PMS5003;38833;51.142;-0.974;2024-03-08T08:01:15;4;3;
44312;PMS5003;38833;51.142;-0.974;2024-03-08T08:03:49;4;3;
44312;PMS5003;38833;51.142;-0.974;2024-03-08T08:06:22;4;4;
44312;PMS5003;38833;51.142;-0.974;2024-03-08T08:08:55;4;3;
44312;PMS5003;38833;51.142;-0.974;2024-03-08T08:11:28;3;3;
44312;PMS5003;38833;51.142;-0.974;2024-03-08T08:14:01;3;3;
44312;PMS5003;38833;51.142;-0.974;2024-03-08T08:16:35;3;3;
44312;PMS5003;38833;51.142;-0.974;2024-03-08T08:19:08;6;3;
44312;PMS5003;38833;51.142;-0.974;2024-03-08T08:21:41;3;2;
44312;PMS5003;38833;51.142;-0.974;2024-03-08T08:24:14;5;3;
44312;PMS5003;38833;51.142;-0.974;2024-03-08T08:26:48;2;2;
44312;PMS5003;38833;51.142;-0.974;2024-03-08T08:29:21;4;4;
44312;PMS5003;38833;51.142;-0.974;2024-03-08T08:31:54;4;4;
44312;PMS5003;38833;51.142;-0.974;2024-03-08T08:34:30;4;3;
44312;PMS5003;38833;51.142;-0.974;2024-03-08T08:37:03;6;4;
44312;PMS5003;38833;51.142;-0.974;2024-03-08T08:39:36;4;4;
44312;PMS5003;38833;51.142;-0.974;2024-03-08T08:42:09;3;3;
44312;PMS5003;38833;51.142;-0.974;2024-03-08T08:44:43;6;5;
44312;PMS5003;38833;51.142;-0.974;2024-03-08T08:47:16;5;5;
44312;PMS5003;38833;51.142;-0.974;2024-03-08T08:49:49;3;3;
44312;PMS5003;38833;51.142;-0.974;2024-03-08T08:52:23;5;4;
44312;PMS5003;38833;51.142;-0.974;2024-03-08T08:54:56;4;4;
44312;PMS5003;38833;51.142;-0.974;2024-03-08T08:57:29;7;4;
44312;PMS5003;38833;51.142;-0.974;2024-03-08T09:00:03;5;5;
44312;PMS5003;38833;51.142;-0.974;2024-03-08T09:02:37;6;4;
44312;PMS5003;38833;51.142;-0.974;2024-03-08T09:05:10;5;5;
44312;PMS5003;38833;51.142;-0.974;2024-03-08T09:07:44;5;5;
44312;PMS5003;38833;51.142;-0.974;2024-03-08T09:10:17;5;5;
44312;PMS5003;38833;51.142;-0.974;2024-03-08T09:12:50;5;5;
44312;PMS5003;38833;51.142;-0.974;2024-03-08T09:15:24;4;4;
44312;PMS5003;38833;51.142;-0.974;2024-03-08T09:17:57;5;4;
44312;PMS5003;38833;51.142;-0.974;2024-03-08T09:20:30;5;4;
44312;PMS5003;38833;51.142;-0.974;2024-03-08T09:23:04;4;4;
44312;PMS5003;38833;51.142;-0.974;2024-03-08T09:25:37;5;5;
44312;PMS5003;38833;51.142;-0.974;2024-03-08T09:28:10;4;4;
44312;PMS5003;38833;51.142;-0.974;2024-03-08T09:30:44;3;3;
44312;PMS5003;38833;51.142;-0.974;2024-03-08T09:33:17;7;7;
44312;PMS5003;38833;51.142;-0.974;2024-03-08T09:35:50;5;5;
44312;PMS5003;38833;51.142;-0.974;2024-03-08T09:38:23;5;5;
44312;PMS5003;38833;51.142;-0.974;2024-03-08T09:40:57;3;3;
44312;PMS5003;38833;51.142;-0.974;2024-03-08T09:43:30;5;5;
44312;PMS5003;38833;51.142;-0.974;2024-03-08T09:46:04;4;4;
44312;PMS5003;38833;51.142;-0.974;2024-03-08T09:48:38;4;4;
44312;PMS5003;38833;51.142;-0.974;2024-03-08T09:51:12;5;5;
44312;PMS5003;38833;51.142;-0.974;2024-03-08T09:53:46;6;6;
44312;PMS5003;38833;51.142;-0.974;2024-03-08T09:56:19;6;5;
44312;PMS5003;38833;51.142;-0.974;2024-03-08T09:58:52;7;7;
44312;PMS5003;38833;51.142;-0.974;2024-03-08T10:01:26;6;6;
44312;PMS5003;38833;51.142;-0.974;2024-03-08T10:03:59;8;7;
44312;PMS5003;38833;51.142;-0.974;2024-03-08T10:06:34;6;5;
44312;PMS5003;38833;51.142;-0.974;2024-03-08T10:09:07;6;5;
44312;PMS5003;38833;51.142;-0.974;2024-03-08T10:11:41;6;6;
44312;PMS5003;38833;51.142;-0.974;2024-03-08T10:14:14;5;5;
44312;PMS5003;38833;51.142;-0.974;2024-03-08T10:16:48;7;7;
44312;PMS5003;38833;51.142;-0.974;2024-03-08T10:19:21;4;4;
44312;PMS5003;38833;51.142;-0.974;2024-03-08T10:21:55;5;5;
44312;PMS5003;38833;51.142;-0.974;2024-03-08T10:24:28;7;6;
44312;PMS5003;38833;51.142;-0.974;2024-03-08T10:27:01;5;5;
44312;PMS5003;38833;51.142;-0.974;2024-03-08T10:29:35;7;6;
44312;PMS5003;38833;51.142;-0.974;2024-03-08T10:32:08;6;5;
44312;PMS5003;38833;51.142;-0.974;2024-03-08T10:34:42;4;4;
44312;PMS5003;38833;51.142;-0.974;2024-03-08T10:37:15;7;5;
44312;PMS5003;38833;51.142;-0.974;2024-03-08T10:39:54;9;6;
44312;PMS5003;38833;51.142;-0.974;2024-03-08T10:42:34;7;5;
44312;PMS5003;38833;51.142;-0.974;2024-03-08T10:45:18;7;7;
44312;PMS5003;38833;51.142;-0.974;2024-03-08T10:48:04;5;5;
44312;PMS5003;38833;51.142;-0.974;2024-03-08T10:50:54;6;6;
44312;PMS5003;38833;51.142;-0.974;2024-03-08T10:53:29;6;6;
44312;PMS5003;38833;51.142;-0.974;2024-03-08T10:56:03;5;5;
44312;PMS5003;38833;51.142;-0.974;2024-03-08T10:58:36;7;6;
44312;PMS5003;38833;51.142;-0.974;2024-03-08T11:01:11;7;6;
44312;PMS5003;38833;51.142;-0.974;2024-03-08T11:03:44;7;5;
44312;PMS5003;38833;51.142;-0.974;2024-03-08T11:06:19;7;7;
44312;PMS5003;38833;51.142;-0.974;2024-03-08T11:09:02;5;5;
44312;PMS5003;38833;51.142;-0.974;2024-03-08T11:11:36;7;5;
44312;PMS5003;38833;51.142;-0.974;2024-03-08T11:14:13;5;5;
44312;PMS5003;38833;51.142;-0.974;2024-03-08T11:17:16;8;7;
44312;PMS5003;38833;51.142;-0.974;2024-03-08T11:19:54;5;5;
44312;PMS5003;38833;51.142;-0.974;2024-03-08T11:22:31;6;5;
44312;PMS5003;38833;51.142;-0.974;2024-03-08T11:25:08;5;5;
44312;PMS5003;38833;51.142;-0.974;2024-03-08T11:27:48;4;4;
44312;PMS5003;38833;51.142;-0.974;2024-03-08T11:30:25;5;5;
44312;PMS5003;38833;51.142;-0.974;2024-03-08T11:33:00;6;6;
44312;PMS5003;38833;51.142;-0.974;2024-03-08T11:35:34;6;5;
44312;PMS5003;38833;51.142;-0.974;2024-03-08T11:38:08;5;5;
44312;PMS5003;38833;51.142;-0.974;2024-03-08T11:40:41;5;5;
44312;PMS5003;38833;51.142;-0.974;2024-03-08T11:43:15;4;4;
44312;PMS5003;38833;51.142;-0.974;2024-03-08T11:45:49;6;5;
44312;PMS5003;38833;51.142;-0.974;2024-03-08T11:48:22;5;4;
44312;PMS5003;38833;51.142;-0.974;2024-03-08T11:50:59;6;5;
44312;PMS5003;38833;51.142;-0.974;2024-03-08T11:53:33;6;6;
44312;PMS5003;38833;51.142;-0.974;2024-03-08T11:56:07;4;4;
44312;PMS5003;38833;51.142;-0.974;2024-03-08T11:58:41;4;4;
44312;PMS5003;38833;51.142;-0.974;2024-03-08T12:01:24;5;5;
44312;PMS5003;38833;51.142;-0.974;2024-03-08T12:03:58;5;4;
44312;PMS5003;38833;51.142;-0.974;2024-03-08T12:06:36;4;3;
44312;PMS5003;38833;51.142;-0.974;2024-03-08T12:09:11;7;5;
44312;PMS5003;38833;51.142;-0.974;2024-03-08T12:11:47;4;4;
44312;PMS5003;38833;51.142;-0.974;2024-03-08T12:14:20;5;5;
44312;PMS5003;38833;51.142;-0.974;2024-03-08T12:16:54;5;5;
44312;PMS5003;38833;51.142;-0.974;2024-03-08T12:19:27;5;5;
44312;PMS5003;38833;51.142;-0.974;2024-03-08T12:22:07;4;4;
44312;PMS5003;38833;51.142;-0.974;2024-03-08T12:24:41;4;4;
44312;PMS5003;38833;51.142;-0.974;2024-03-08T12:27:18;5;5;
44312;PMS5003;38833;51.142;-0.974;2024-03-08T12:29:52;7;4;
44312;PMS5003;38833;51.142;-0.974;2024-03-08T12:32:25;5;4;
44312;PMS5003;38833;51.142;-0.974;2024-03-08T12:34:58;5;4;
44312;PMS5003;38833;51.142;-0.974;2024-03-08T12:37:32;4;4;
44312;PMS5003;38833;51.142;-0.974;2024-03-08T12:40:07;5;4;
44312;PMS5003;38833;51.142;-0.974;2024-03-08T12:42:41;3;3;
44312;PMS5003;38833;51.142;-0.974;2024-03-08T12:45:15;6;5;
44312;PMS5003;38833;51.142;-0.974;2024-03-08T12:47:48;5;4;
44312;PMS5003;38833;51.142;-0.974;2024-03-08T12:50:21;4;4;
44312;PMS5003;38833;51.142;-0.974;2024-03-08T12:52:56;5;5;
44312;PMS5003;38833;51.142;-0.974;2024-03-08T12:55:29;4;4;
44312;PMS5003;38833;51.142;-0.974;2024-03-08T12:58:03;6;5;
44312;PMS5003;38833;51.142;-0.974;2024-03-08T13:00:36;5;3;
44312;PMS5003;38833;51.142;-0.974;2024-03-08T13:03:09;5;4;
44312;PMS5003;38833;51.142;-0.974;2024-03-08T13:05:43;5;5;
44312;PMS5003;38833;51.142;-0.974;2024-03-08T13:08:16;4;4;
44312;PMS5003;38833;51.142;-0.974;2024-03-08T13:10:50;4;4;
44312;PMS5003;38833;51.142;-0.974;2024-03-08T13:13:23;6;6;
44312;PMS5003;38833;51.142;-0.974;2024-03-08T13:15:57;5;5;
44312;PMS5003;38833;51.142;-0.974;2024-03-08T13:18:30;6;6;
44312;PMS5003;38833;51.142;-0.974;2024-03-08T13:21:04;7;7;
44312;PMS5003;38833;51.142;-0.974;2024-03-08T13:23:37;8;6;
44312;PMS5003;38833;51.142;-0.974;2024-03-08T13:26:12;8;8;
44312;PMS5003;38833;51.142;-0.974;2024-03-08T13:28:46;7;7;
44312;PMS5003;38833;51.142;-0.974;2024-03-08T13:31:20;7;7;
44312;PMS5003;38833;51.142;-0.974;2024-03-08T13:33:53;7;7;
44312;PMS5003;38833;51.142;-0.974;2024-03-08T13:36:27;8;8;
44312;PMS5003;38833;51.142;-0.974;2024-03-08T13:39:00;7;7;
44312;PMS5003;38833;51.142;-0.974;2024-03-08T13:41:34;5;5;
44312;PMS5003;38833;51.142;-0.974;2024-03-08T13:44:07;6;5;
44312;PMS5003;38833;51.142;-0.974;2024-03-08T13:46:40;5;5;
44312;PMS5003;38833;51.142;-0.974;2024-03-08T13:49:14;21;10;
44312;PMS5003;38833;51.142;-0.974;2024-03-08T13:51:47;9;8;
44312;PMS5003;38833;51.142;-0.974;2024-03-08T13:54:20;9;9;
44312;PMS5003;38833;51.142;-0.974;2024-03-08T13:56:54;6;5;
44312;PMS5003;38833;51.142;-0.974;2024-03-08T13:59:27;6;5;
44312;PMS5003;38833;51.142;-0.974;2024-03-08T14:02:01;3;3;
44312;PMS5003;38833;51.142;-0.974;2024-03-08T14:04:35;7;5;
44312;PMS5003;38833;51.142;-0.974;2024-03-08T14:07:08;4;4;
44312;PMS5003;38833;51.142;-0.974;2024-03-08T14:09:42;6;6;
44312;PMS5003;38833;51.142;-0.974;2024-03-08T14:12:15;6;4;
44312;PMS5003;38833;51.142;-0.974;2024-03-08T14:14:48;5;5;
44312;PMS5003;38833;51.142;-0.974;2024-03-08T14:17:22;5;4;
44312;PMS5003;38833;51.142;-0.974;2024-03-08T14:19:56;4;4;
44312;PMS5003;38833;51.142;-0.974;2024-03-08T14:22:29;6;5;
44312;PMS5003;38833;51.142;-0.974;2024-03-08T14:25:03;3;3;
44312;PMS5003;38833;51.142;-0.974;2024-03-08T14:27:36;7;6;
44312;PMS5003;38833;51.142;-0.974;2024-03-08T14:30:10;3;3;
44312;PMS5003;38833;51.142;-0.974;2024-03-08T14:32:44;5;4;
44312;PMS5003;38833;51.142;-0.974;2024-03-08T14:35:17;6;5;
44312;PMS5003;38833;51.142;-0.974;2024-03-08T14:37:50;5;5;
44312;PMS5003;38833;51.142;-0.974;2024-03-08T14:40:24;4;4;
44312;PMS5003;38833;51.142;-0.974;2024-03-08T14:42:57;7;6;
44312;PMS5003;38833;51.142;-0.974;2024-03-08T14:45:31;4;4;
44312;PMS5003;38833;51.142;-0.974;2024-03-08T14:48:04;4;4;
44312;PMS5003;38833;51.142;-0.974;2024-03-08T14:50:38;6;6;
44312;PMS5003;38833;51.142;-0.974;2024-03-08T14:53:11;4;4;
44312;PMS5003;38833;51.142;-0.974;2024-03-08T14:55:45;5;5;
44312;PMS5003;38833;51.142;-0.974;2024-03-08T14:58:19;7;7;
44312;PMS5003;38833;51.142;-0.974;2024-03-08T15:00:52;5;5;
44312;PMS5003;38833;51.142;-0.974;2024-03-08T15:03:25;9;8;
44312;PMS5003;38833;51.142;-0.974;2024-03-08T15:05:59;7;7;
44312;PMS5003;38833;51.142;-0.974;2024-03-08T15:08:32;7;7;
44312;PMS5003;38833;51.142;-0.974;2024-03-08T15:11:05;7;6;
44312;PMS5003;38833;51.142;-0.974;2024-03-08T15:13:39;7;7;
44312;PMS5003;38833;51.142;-0.974;2024-03-08T15:16:12;10;8;
44312;PMS5003;38833;51.142;-0.974;2024-03-08T15:18:46;11;11;
44312;PMS5003;38833;51.142;-0.974;2024-03-08T15:21:19;15;15;
44312;PMS5003;38833;51.142;-0.974;2024-03-08T15:23:53;17;17;
44312;PMS5003;38833;51.142;-0.974;2024-03-08T15:26:26;23;21;
44312;PMS5003;38833;51.142;-0.974;2024-03-08T15:29:00;17;17;
44312;PMS5003;38833;51.142;-0.974;2024-03-08T15:31:33;6;6;
44312;PMS5003;38833;51.142;-0.974;2024-03-08T15:34:06;4;4;
44312;PMS5003;38833;51.142;-0.974;2024-03-08T15:36:40;6;6;
44312;PMS5003;38833;51.142;-0.974;2024-03-08T15:39:13;5;5;
44312;PMS5003;38833;51.142;-0.974;2024-03-08T15:41:46;5;5;
44312;PMS5003;38833;51.142;-0.974;2024-03-08T15:44:20;6;5;
44312;PMS5003;38833;51.142;-0.974;2024-03-08T15:46:53;5;4;
44312;PMS5003;38833;51.142;-0.974;2024-03-08T15:49:26;3;3;
44312;PMS5003;38833;51.142;-0.974;2024-03-08T15:52:01;4;4;
44312;PMS5003;38833;51.142;-0.974;2024-03-08T15:54:36;5;5;
44312;PMS5003;38833;51.142;-0.974;2024-03-08T15:57:10;5;5;
44312;PMS5003;38833;51.142;-0.974;2024-03-08T15:59:43;4;4;
44312;PMS5003;38833;51.142;-0.974;2024-03-08T16:02:16;4;4;
44312;PMS5003;38833;51.142;-0.974;2024-03-08T16:04:50;5;5;
44312;PMS5003;38833;51.142;-0.974;2024-03-08T16:07:25;5;5;
44312;PMS5003;38833;51.142;-0.974;2024-03-08T16:09:58;4;4;
44312;PMS5003;38833;51.142;-0.974;2024-03-08T16:12:34;6;3;
44312;PMS5003;38833;51.142;-0.974;2024-03-08T16:15:08;4;4;
44312;PMS5003;38833;51.142;-0.974;2024-03-08T16:17:42;6;4;
44312;PMS5003;38833;51.142;-0.974;2024-03-08T16:20:15;4;4;
44312;PMS5003;38833;51.142;-0.974;2024-03-08T16:22:48;5;4;
44312;PMS5003;38833;51.142;-0.974;2024-03-08T16:25:22;5;3;
44312;PMS5003;38833;51.142;-0.974;2024-03-08T16:27:55;6;5;
44312;PMS5003;38833;51.142;-0.974;2024-03-08T16:30:29;3;3;
44312;PMS5003;38833;51.142;-0.974;2024-03-08T16:33:02;4;4;
44312;PMS5003;38833;51.142;-0.974;2024-03-08T16:35:36;5;4;
44312;PMS5003;38833;51.142;-0.974;2024-03-08T16:38:09;4;4;
44312;PMS5003;38833;51.142;-0.974;2024-03-08T16:40:43;5;5;
44312;PMS5003;38833;51.142;-0.974;2024-03-08T16:43:18;4;4;
44312;PMS5003;38833;51.142;-0.974;2024-03-08T16:45:51;6;4;
44312;PMS5003;38833;51.142;-0.974;2024-03-08T16:48:25;4;4;
44312;PMS5003;38833;51.142;-0.974;2024-03-08T16:50:58;5;5;
44312;PMS5003;38833;51.142;-0.974;2024-03-08T16:53:31;4;4;
44312;PMS5003;38833;51.142;-0.974;2024-03-08T16:56:05;6;4;
44312;PMS5003;38833;51.142;-0.974;2024-03-08T16:58:38;6;5;
44312;PMS5003;38833;51.142;-0.974;2024-03-08T17:01:12;3;3;
44312;PMS5003;38833;51.142;-0.974;2024-03-08T17:03:45;5;4;
44312;PMS5003;38833;51.142;-0.974;2024-03-08T17:06:19;3;3;
44312;PMS5003;38833;51.142;-0.974;2024-03-08T17:08:52;4;3;
44312;PMS5003;38833;51.142;-0.974;2024-03-08T17:11:25;5;5;
44312;PMS5003;38833;51.142;-0.974;2024-03-08T17:13:59;6;5;
44312;PMS5003;38833;51.142;-0.974;2024-03-08T17:16:32;4;4;